Garmisch Partenkirchen, Germany

8:26 PM CET on February 09, 2016 (GMT +0100)
Klaeranlage Oberammergau | | Change Station
CLOSE
Current Station
Personal Weather Station
Location: Oberammergau, BAYERN
Elevation: 2720 ft
Nearby Weather Stations

Elev 2720 ft 47.60 °N, 11.06 °E | Updated 7 seconds ago

Mostly Cloudy
Mostly Cloudy
49.5 °F
Feels Like 46 °F
N
8.7
Wind Variable Wind from WNW
Gusts 9.8 mph

Today
High -- | Low -- °F
--% Chance of Precip.
Yesterday
High -- | Low -- °F
Precip. -- in
Pressure 29.30 in
Visibility 6.2 miles
Clouds Few 7000 ft
Mostly Cloudy 12000 ft
Windchill 46 °F
Dew Point 32 °F
Humidity 52%
Rainfall 0.07 in
Snow Depth Not available.
7:31 AM 5:28 PM
New Moon, 2% visible
METAR LOWI 091920Z 11013G25KT 070V160 9999 FEW070 BKN120 11/01 Q0992 NOSIG
Pressure 29.30 in
Visibility 6.2 miles
Clouds Few 7000 ft
Mostly Cloudy 12000 ft
Windchill 46 °F
Dew Point 32 °F
Humidity 52%
Rainfall 0.07 in
Snow Depth Not available.
7:31 AM 5:28 PM
New Moon, 2% visible
METAR LOWI 091920Z 11013G25KT 070V160 9999 FEW070 BKN120 11/01 Q0992 NOSIG

10-Day Weather Forecast

Almanac

Astronomy

Feb. 09, 2016 Rise Set
Actual Time
Civil Twilight
Nautical Twilight
Astronomical Twilight
Moon
Length of Visible Light
Length of Day
Tomorrow will be .
, % of the Moon is Illuminated

Today's Extremes

Country Highs Country Lows

Community

WunderPhotos

Upload Photos

1,891,668 photos uploaded!

WunderBlog® & News

Nearby

Air Quality

  Air Quality AQ Index Pollutant
Not available.

Snow Depth

Station Depth Elevation

Earthquake Activity

City Distance Mag. Time & Date
Minimum magnitude displayed is 2.5.

Coastal Water Temperatures

Place Temperature

Stations

Nearby Weather Stations

Station Location Temp. Windchill Dew Point Humidity Wind Precip. Elev Updated Type